sensor_id;sensor_type;location;lat;lon;timestamp;temperature;humidity
6581;DHT22;3324;50.796;7.228;2023-02-23T00:01:27;10.80;99.90
6581;DHT22;3324;50.796;7.228;2023-02-23T00:03:55;10.70;99.90
6581;DHT22;3324;50.796;7.228;2023-02-23T00:06:22;10.70;99.90
6581;DHT22;3324;50.796;7.228;2023-02-23T00:08:48;10.70;99.90
6581;DHT22;3324;50.796;7.228;2023-02-23T00:11:14;10.70;99.90
6581;DHT22;3324;50.796;7.228;2023-02-23T00:13:41;10.70;99.90
6581;DHT22;3324;50.796;7.228;2023-02-23T00:16:12;10.60;99.90
6581;DHT22;3324;50.796;7.228;2023-02-23T00:18:43;10.60;99.90
6581;DHT22;3324;50.796;7.228;2023-02-23T00:24:04;10.70;99.90
6581;DHT22;3324;50.796;7.228;2023-02-23T00:26:31;10.60;99.90
6581;DHT22;3324;50.796;7.228;2023-02-23T00:29:00;10.60;99.90
6581;DHT22;3324;50.796;7.228;2023-02-23T00:31:26;10.60;99.90
6581;DHT22;3324;50.796;7.228;2023-02-23T00:33:53;10.60;99.90
6581;DHT22;3324;50.796;7.228;2023-02-23T00:36:21;10.60;99.90
6581;DHT22;3324;50.796;7.228;2023-02-23T00:38:52;10.50;99.90
6581;DHT22;3324;50.796;7.228;2023-02-23T00:41:18;10.50;99.90
6581;DHT22;3324;50.796;7.228;2023-02-23T00:43:48;10.50;99.90
6581;DHT22;3324;50.796;7.228;2023-02-23T00:46:15;10.60;99.90
6581;DHT22;3324;50.796;7.228;2023-02-23T00:48:45;10.50;99.90
6581;DHT22;3324;50.796;7.228;2023-02-23T00:51:11;10.50;99.90
6581;DHT22;3324;50.796;7.228;2023-02-23T00:53:37;10.50;99.90
6581;DHT22;3324;50.796;7.228;2023-02-23T00:56:04;10.50;99.90
6581;DHT22;3324;50.796;7.228;2023-02-23T00:58:30;10.50;99.90
6581;DHT22;3324;50.796;7.228;2023-02-23T01:00:56;10.50;99.90
6581;DHT22;3324;50.796;7.228;2023-02-23T01:03:27;10.50;99.90
6581;DHT22;3324;50.796;7.228;2023-02-23T01:05:53;10.50;99.90
6581;DHT22;3324;50.796;7.228;2023-02-23T01:08:20;10.50;99.90
6581;DHT22;3324;50.796;7.228;2023-02-23T01:10:46;10.50;99.90
6581;DHT22;3324;50.796;7.228;2023-02-23T01:13:19;10.50;99.90
6581;DHT22;3324;50.796;7.228;2023-02-23T01:15:45;10.50;99.90
6581;DHT22;3324;50.796;7.228;2023-02-23T01:18:16;10.40;99.90
6581;DHT22;3324;50.796;7.228;2023-02-23T01:20:43;10.40;99.90
6581;DHT22;3324;50.796;7.228;2023-02-23T01:23:10;10.40;99.90
6581;DHT22;3324;50.796;7.228;2023-02-23T01:25:37;10.40;99.90
6581;DHT22;3324;50.796;7.228;2023-02-23T01:28:03;10.40;99.90
6581;DHT22;3324;50.796;7.228;2023-02-23T01:30:29;10.40;99.90
6581;DHT22;3324;50.796;7.228;2023-02-23T01:32:55;10.40;99.90
6581;DHT22;3324;50.796;7.228;2023-02-23T01:35:20;10.40;99.90
6581;DHT22;3324;50.796;7.228;2023-02-23T01:37:46;10.40;99.90
6581;DHT22;3324;50.796;7.228;2023-02-23T01:40:18;10.40;99.90
6581;DHT22;3324;50.796;7.228;2023-02-23T01:43:13;10.40;99.90
6581;DHT22;3324;50.796;7.228;2023-02-23T01:45:40;10.30;99.90
6581;DHT22;3324;50.796;7.228;2023-02-23T01:48:12;10.40;99.90
6581;DHT22;3324;50.796;7.228;2023-02-23T01:50:53;10.40;99.90
6581;DHT22;3324;50.796;7.228;2023-02-23T01:53:20;10.30;99.90
6581;DHT22;3324;50.796;7.228;2023-02-23T01:55:49;10.30;99.90
6581;DHT22;3324;50.796;7.228;2023-02-23T01:58:17;10.30;99.90
6581;DHT22;3324;50.796;7.228;2023-02-23T02:00:50;10.40;99.90
6581;DHT22;3324;50.796;7.228;2023-02-23T02:03:46;10.40;99.90
6581;DHT22;3324;50.796;7.228;2023-02-23T02:06:16;10.30;99.90
6581;DHT22;3324;50.796;7.228;2023-02-23T02:08:46;10.30;99.90
6581;DHT22;3324;50.796;7.228;2023-02-23T02:11:17;10.30;99.90
6581;DHT22;3324;50.796;7.228;2023-02-23T02:14:00;10.30;99.90
6581;DHT22;3324;50.796;7.228;2023-02-23T02:25:43;10.20;99.90
6581;DHT22;3324;50.796;7.228;2023-02-23T02:34:02;10.10;99.90
6581;DHT22;3324;50.796;7.228;2023-02-23T02:39:34;10.20;99.90
6581;DHT22;3324;50.796;7.228;2023-02-23T02:45:02;10.20;99.90
6581;DHT22;3324;50.796;7.228;2023-02-23T02:48:20;10.20;99.90
6581;DHT22;3324;50.796;7.228;2023-02-23T02:53:12;10.10;99.90
6581;DHT22;3324;50.796;7.228;2023-02-23T02:55:41;10.20;99.90
6581;DHT22;3324;50.796;7.228;2023-02-23T02:58:10;10.20;99.90
6581;DHT22;3324;50.796;7.228;2023-02-23T03:00:40;10.20;99.90
6581;DHT22;3324;50.796;7.228;2023-02-23T03:03:39;10.10;99.90
6581;DHT22;3324;50.796;7.228;2023-02-23T03:06:31;10.20;99.90
6581;DHT22;3324;50.796;7.228;2023-02-23T03:09:34;10.10;99.90
6581;DHT22;3324;50.796;7.228;2023-02-23T03:12:35;10.20;99.90
6581;DHT22;3324;50.796;7.228;2023-02-23T03:21:15;10.30;99.90
6581;DHT22;3324;50.796;7.228;2023-02-23T03:27:22;10.40;99.90
6581;DHT22;3324;50.796;7.228;2023-02-23T03:30:24;10.30;99.90
6581;DHT22;3324;50.796;7.228;2023-02-23T03:33:19;10.20;99.90
6581;DHT22;3324;50.796;7.228;2023-02-23T03:36:13;10.20;99.90
6581;DHT22;3324;50.796;7.228;2023-02-23T03:42:06;10.50;99.90
6581;DHT22;3324;50.796;7.228;2023-02-23T03:44:53;10.30;99.90
6581;DHT22;3324;50.796;7.228;2023-02-23T03:47:40;10.40;99.90
6581;DHT22;3324;50.796;7.228;2023-02-23T03:50:38;10.30;99.90
6581;DHT22;3324;50.796;7.228;2023-02-23T03:53:39;10.30;99.90
6581;DHT22;3324;50.796;7.228;2023-02-23T03:56:26;10.20;99.90
6581;DHT22;3324;50.796;7.228;2023-02-23T03:59:12;10.20;99.90
6581;DHT22;3324;50.796;7.228;2023-02-23T04:01:57;10.30;99.90
6581;DHT22;3324;50.796;7.228;2023-02-23T04:04:43;10.20;99.90
6581;DHT22;3324;50.796;7.228;2023-02-23T04:07:29;10.30;99.90
6581;DHT22;3324;50.796;7.228;2023-02-23T04:10:14;10.30;99.90
6581;DHT22;3324;50.796;7.228;2023-02-23T04:13:15;10.30;99.90
6581;DHT22;3324;50.796;7.228;2023-02-23T04:15:46;10.20;99.90
6581;DHT22;3324;50.796;7.228;2023-02-23T04:18:15;10.20;99.90
6581;DHT22;3324;50.796;7.228;2023-02-23T04:20:42;10.20;99.90
6581;DHT22;3324;50.796;7.228;2023-02-23T04:23:07;10.20;99.90
6581;DHT22;3324;50.796;7.228;2023-02-23T04:25:33;10.20;99.90
6581;DHT22;3324;50.796;7.228;2023-02-23T04:27:58;10.30;99.90
6581;DHT22;3324;50.796;7.228;2023-02-23T04:30:24;10.20;99.90
6581;DHT22;3324;50.796;7.228;2023-02-23T04:32:51;10.30;99.90
6581;DHT22;3324;50.796;7.228;2023-02-23T04:35:17;10.30;99.90
6581;DHT22;3324;50.796;7.228;2023-02-23T04:37:42;10.30;99.90
6581;DHT22;3324;50.796;7.228;2023-02-23T04:40:08;10.30;99.90
6581;DHT22;3324;50.796;7.228;2023-02-23T04:42:34;10.30;99.90
6581;DHT22;3324;50.796;7.228;2023-02-23T04:45:00;10.30;99.90
6581;DHT22;3324;50.796;7.228;2023-02-23T04:47:26;10.30;99.90
6581;DHT22;3324;50.796;7.228;2023-02-23T04:49:52;10.30;99.90
6581;DHT22;3324;50.796;7.228;2023-02-23T04:52:18;10.40;99.90
6581;DHT22;3324;50.796;7.228;2023-02-23T04:54:43;10.40;99.90
6581;DHT22;3324;50.796;7.228;2023-02-23T04:57:09;10.30;99.90
6581;DHT22;3324;50.796;7.228;2023-02-23T04:59:35;10.30;99.90
6581;DHT22;3324;50.796;7.228;2023-02-23T05:02:00;10.30;99.90
6581;DHT22;3324;50.796;7.228;2023-02-23T05:04:26;10.30;99.90
6581;DHT22;3324;50.796;7.228;2023-02-23T05:06:52;10.30;99.90
6581;DHT22;3324;50.796;7.228;2023-02-23T05:09:18;10.30;99.90
6581;DHT22;3324;50.796;7.228;2023-02-23T05:11:43;10.30;99.90
6581;DHT22;3324;50.796;7.228;2023-02-23T05:14:09;10.30;99.90
6581;DHT22;3324;50.796;7.228;2023-02-23T05:16:37;10.30;99.90
6581;DHT22;3324;50.796;7.228;2023-02-23T05:19:03;10.30;99.90
6581;DHT22;3324;50.796;7.228;2023-02-23T05:21:28;10.30;99.90
6581;DHT22;3324;50.796;7.228;2023-02-23T05:23:54;10.30;99.90
6581;DHT22;3324;50.796;7.228;2023-02-23T05:26:21;10.30;99.90
6581;DHT22;3324;50.796;7.228;2023-02-23T05:28:47;10.40;99.90
6581;DHT22;3324;50.796;7.228;2023-02-23T05:31:13;10.40;99.90
6581;DHT22;3324;50.796;7.228;2023-02-23T05:33:39;10.40;99.90
6581;DHT22;3324;50.796;7.228;2023-02-23T05:36:11;10.40;99.90
6581;DHT22;3324;50.796;7.228;2023-02-23T05:38:37;10.50;99.90
6581;DHT22;3324;50.796;7.228;2023-02-23T05:41:05;10.50;99.90
6581;DHT22;3324;50.796;7.228;2023-02-23T05:43:31;10.50;99.90
6581;DHT22;3324;50.796;7.228;2023-02-23T05:45:57;10.40;99.90
6581;DHT22;3324;50.796;7.228;2023-02-23T05:48:22;10.40;99.90
6581;DHT22;3324;50.796;7.228;2023-02-23T05:50:48;10.40;99.90
6581;DHT22;3324;50.796;7.228;2023-02-23T05:53:14;10.50;99.90
6581;DHT22;3324;50.796;7.228;2023-02-23T05:55:39;10.50;99.90
6581;DHT22;3324;50.796;7.228;2023-02-23T05:58:05;10.70;99.90
6581;DHT22;3324;50.796;7.228;2023-02-23T06:00:31;10.70;99.90
6581;DHT22;3324;50.796;7.228;2023-02-23T06:02:57;10.60;99.90
6581;DHT22;3324;50.796;7.228;2023-02-23T06:05:23;10.60;99.90
6581;DHT22;3324;50.796;7.228;2023-02-23T06:07:49;10.50;99.90
6581;DHT22;3324;50.796;7.228;2023-02-23T06:10:14;10.50;99.90
6581;DHT22;3324;50.796;7.228;2023-02-23T06:12:40;10.50;99.90
6581;DHT22;3324;50.796;7.228;2023-02-23T06:15:06;10.40;99.90
6581;DHT22;3324;50.796;7.228;2023-02-23T06:17:32;10.40;99.90
6581;DHT22;3324;50.796;7.228;2023-02-23T06:19:58;10.40;99.90
6581;DHT22;3324;50.796;7.228;2023-02-23T06:22:24;10.40;99.90
6581;DHT22;3324;50.796;7.228;2023-02-23T06:24:49;10.40;99.90
6581;DHT22;3324;50.796;7.228;2023-02-23T06:27:15;10.40;99.90
6581;DHT22;3324;50.796;7.228;2023-02-23T06:29:40;10.40;99.90
6581;DHT22;3324;50.796;7.228;2023-02-23T06:32:06;10.40;99.90
6581;DHT22;3324;50.796;7.228;2023-02-23T06:34:32;10.40;99.90
6581;DHT22;3324;50.796;7.228;2023-02-23T06:36:58;10.40;99.90
6581;DHT22;3324;50.796;7.228;2023-02-23T06:39:24;10.40;99.90
6581;DHT22;3324;50.796;7.228;2023-02-23T06:41:49;10.40;99.90
6581;DHT22;3324;50.796;7.228;2023-02-23T06:44:15;10.40;99.90
6581;DHT22;3324;50.796;7.228;2023-02-23T06:46:41;10.40;99.90
6581;DHT22;3324;50.796;7.228;2023-02-23T06:49:06;10.40;99.90
6581;DHT22;3324;50.796;7.228;2023-02-23T06:51:32;10.30;99.90
6581;DHT22;3324;50.796;7.228;2023-02-23T06:53:57;10.30;99.90
6581;DHT22;3324;50.796;7.228;2023-02-23T06:56:23;10.40;99.90
6581;DHT22;3324;50.796;7.228;2023-02-23T06:58:49;10.40;99.90
6581;DHT22;3324;50.796;7.228;2023-02-23T07:01:15;10.40;99.90
6581;DHT22;3324;50.796;7.228;2023-02-23T07:03:41;10.50;99.90
6581;DHT22;3324;50.796;7.228;2023-02-23T07:06:07;10.40;99.90
6581;DHT22;3324;50.796;7.228;2023-02-23T07:08:33;10.40;99.90
6581;DHT22;3324;50.796;7.228;2023-02-23T07:11:10;10.40;99.90
6581;DHT22;3324;50.796;7.228;2023-02-23T07:13:38;10.30;99.90
6581;DHT22;3324;50.796;7.228;2023-02-23T07:16:04;10.30;99.90
6581;DHT22;3324;50.796;7.228;2023-02-23T07:18:30;10.30;99.90
6581;DHT22;3324;50.796;7.228;2023-02-23T07:20:56;10.40;99.90
6581;DHT22;3324;50.796;7.228;2023-02-23T07:23:22;10.40;99.90
6581;DHT22;3324;50.796;7.228;2023-02-23T07:25:51;10.30;99.90
6581;DHT22;3324;50.796;7.228;2023-02-23T07:28:17;10.40;99.90
6581;DHT22;3324;50.796;7.228;2023-02-23T07:30:43;10.30;99.90
6581;DHT22;3324;50.796;7.228;2023-02-23T07:33:09;10.40;99.90
6581;DHT22;3324;50.796;7.228;2023-02-23T07:35:35;10.30;99.90
6581;DHT22;3324;50.796;7.228;2023-02-23T07:38:00;10.30;99.90
6581;DHT22;3324;50.796;7.228;2023-02-23T07:40:26;10.30;99.90
6581;DHT22;3324;50.796;7.228;2023-02-23T07:42:52;10.30;99.90
6581;DHT22;3324;50.796;7.228;2023-02-23T07:45:17;10.30;99.90
6581;DHT22;3324;50.796;7.228;2023-02-23T07:47:43;10.30;99.90
6581;DHT22;3324;50.796;7.228;2023-02-23T07:50:10;10.30;99.90
6581;DHT22;3324;50.796;7.228;2023-02-23T07:52:38;10.30;99.90
6581;DHT22;3324;50.796;7.228;2023-02-23T07:55:06;10.40;99.90
6581;DHT22;3324;50.796;7.228;2023-02-23T07:57:32;10.40;99.90
6581;DHT22;3324;50.796;7.228;2023-02-23T07:59:58;10.30;99.90
6581;DHT22;3324;50.796;7.228;2023-02-23T08:02:24;10.40;99.90
6581;DHT22;3324;50.796;7.228;2023-02-23T08:04:49;10.40;99.90
6581;DHT22;3324;50.796;7.228;2023-02-23T08:07:18;10.30;99.90
6581;DHT22;3324;50.796;7.228;2023-02-23T08:09:44;10.40;99.90
6581;DHT22;3324;50.796;7.228;2023-02-23T08:12:10;10.30;99.90
6581;DHT22;3324;50.796;7.228;2023-02-23T08:14:35;10.40;99.90
6581;DHT22;3324;50.796;7.228;2023-02-23T08:17:01;10.40;99.90
6581;DHT22;3324;50.796;7.228;2023-02-23T08:19:27;10.50;99.90
6581;DHT22;3324;50.796;7.228;2023-02-23T08:21:53;10.50;99.90
6581;DHT22;3324;50.796;7.228;2023-02-23T08:24:19;10.40;99.90
6581;DHT22;3324;50.796;7.228;2023-02-23T08:26:44;10.50;99.90
6581;DHT22;3324;50.796;7.228;2023-02-23T08:29:10;10.60;99.90
6581;DHT22;3324;50.796;7.228;2023-02-23T08:31:35;10.60;99.90
6581;DHT22;3324;50.796;7.228;2023-02-23T08:34:01;10.50;99.90
6581;DHT22;3324;50.796;7.228;2023-02-23T08:36:27;10.50;99.90
6581;DHT22;3324;50.796;7.228;2023-02-23T08:38:53;10.50;99.90
6581;DHT22;3324;50.796;7.228;2023-02-23T08:41:19;10.50;99.90
6581;DHT22;3324;50.796;7.228;2023-02-23T08:43:45;10.50;99.90
6581;DHT22;3324;50.796;7.228;2023-02-23T08:46:11;10.50;99.90
6581;DHT22;3324;50.796;7.228;2023-02-23T08:48:37;10.50;99.90
6581;DHT22;3324;50.796;7.228;2023-02-23T08:51:05;10.40;99.90
6581;DHT22;3324;50.796;7.228;2023-02-23T08:53:31;10.50;99.90
6581;DHT22;3324;50.796;7.228;2023-02-23T08:55:59;10.40;99.90
6581;DHT22;3324;50.796;7.228;2023-02-23T08:58:25;10.50;99.90
6581;DHT22;3324;50.796;7.228;2023-02-23T09:00:51;10.50;99.90
6581;DHT22;3324;50.796;7.228;2023-02-23T09:03:18;10.50;99.90
6581;DHT22;3324;50.796;7.228;2023-02-23T09:05:44;10.50;99.90
6581;DHT22;3324;50.796;7.228;2023-02-23T09:08:11;10.50;99.90
6581;DHT22;3324;50.796;7.228;2023-02-23T09:10:37;10.50;99.90
6581;DHT22;3324;50.796;7.228;2023-02-23T09:13:03;10.60;99.90
6581;DHT22;3324;50.796;7.228;2023-02-23T09:15:28;10.50;99.90
6581;DHT22;3324;50.796;7.228;2023-02-23T09:18:00;10.60;99.90
6581;DHT22;3324;50.796;7.228;2023-02-23T09:20:26;10.60;99.90
6581;DHT22;3324;50.796;7.228;2023-02-23T09:22:52;10.70;99.90
6581;DHT22;3324;50.796;7.228;2023-02-23T09:25:19;10.80;99.90
6581;DHT22;3324;50.796;7.228;2023-02-23T09:27:48;10.80;99.90
6581;DHT22;3324;50.796;7.228;2023-02-23T09:30:15;10.80;99.90
6581;DHT22;3324;50.796;7.228;2023-02-23T09:32:46;10.80;99.90
6581;DHT22;3324;50.796;7.228;2023-02-23T09:35:12;10.80;99.90
6581;DHT22;3324;50.796;7.228;2023-02-23T09:37:48;10.80;99.90
6581;DHT22;3324;50.796;7.228;2023-02-23T09:40:18;10.70;99.90
6581;DHT22;3324;50.796;7.228;2023-02-23T09:48:13;10.60;99.90
6581;DHT22;3324;50.796;7.228;2023-02-23T09:50:44;10.60;99.90
6581;DHT22;3324;50.796;7.228;2023-02-23T09:55:49;10.60;99.90
6581;DHT22;3324;50.796;7.228;2023-02-23T09:58:21;10.60;99.90
6581;DHT22;3324;50.796;7.228;2023-02-23T10:03:38;10.60;99.90
6581;DHT22;3324;50.796;7.228;2023-02-23T10:06:10;10.60;99.90
6581;DHT22;3324;50.796;7.228;2023-02-23T10:09:07;10.60;99.90
6581;DHT22;3324;50.796;7.228;2023-02-23T10:20:40;10.70;99.90
6581;DHT22;3324;50.796;7.228;2023-02-23T10:23:26;10.70;99.90
6581;DHT22;3324;50.796;7.228;2023-02-23T10:25:56;10.70;99.90
6581;DHT22;3324;50.796;7.228;2023-02-23T10:28:24;10.70;99.90
6581;DHT22;3324;50.796;7.228;2023-02-23T10:30:51;10.80;99.90
6581;DHT22;3324;50.796;7.228;2023-02-23T10:33:23;10.80;99.90
6581;DHT22;3324;50.796;7.228;2023-02-23T10:35:56;10.80;99.90
6581;DHT22;3324;50.796;7.228;2023-02-23T10:38:22;10.80;99.90
6581;DHT22;3324;50.796;7.228;2023-02-23T10:40:53;10.90;99.90
6581;DHT22;3324;50.796;7.228;2023-02-23T10:43:19;11.00;99.90
6581;DHT22;3324;50.796;7.228;2023-02-23T10:45:48;11.10;99.90
6581;DHT22;3324;50.796;7.228;2023-02-23T10:50:42;11.10;99.90
6581;DHT22;3324;50.796;7.228;2023-02-23T10:53:24;11.10;99.90
6581;DHT22;3324;50.796;7.228;2023-02-23T10:56:11;11.10;99.90
6581;DHT22;3324;50.796;7.228;2023-02-23T10:58:57;11.10;99.90
6581;DHT22;3324;50.796;7.228;2023-02-23T11:01:43;11.10;99.90
6581;DHT22;3324;50.796;7.228;2023-02-23T11:04:22;11.20;99.90
6581;DHT22;3324;50.796;7.228;2023-02-23T11:06:49;11.20;99.90
6581;DHT22;3324;50.796;7.228;2023-02-23T11:09:32;11.20;99.90
6581;DHT22;3324;50.796;7.228;2023-02-23T11:12:04;11.30;99.90
6581;DHT22;3324;50.796;7.228;2023-02-23T11:14:41;11.30;99.90
6581;DHT22;3324;50.796;7.228;2023-02-23T11:19:47;11.30;99.90
6581;DHT22;3324;50.796;7.228;2023-02-23T11:22:18;11.30;99.90
6581;DHT22;3324;50.796;7.228;2023-02-23T11:24:48;11.30;99.90
6581;DHT22;3324;50.796;7.228;2023-02-23T11:27:21;11.30;99.90
6581;DHT22;3324;50.796;7.228;2023-02-23T11:29:49;11.30;99.90
6581;DHT22;3324;50.796;7.228;2023-02-23T11:32:18;11.30;99.90
6581;DHT22;3324;50.796;7.228;2023-02-23T11:34:45;11.30;99.90
6581;DHT22;3324;50.796;7.228;2023-02-23T11:37:21;11.20;99.90
6581;DHT22;3324;50.796;7.228;2023-02-23T11:39:55;11.20;99.90
6581;DHT22;3324;50.796;7.228;2023-02-23T11:42:23;11.10;99.90
6581;DHT22;3324;50.796;7.228;2023-02-23T11:47:30;11.10;99.90
6581;DHT22;3324;50.796;7.228;2023-02-23T11:49:56;11.10;99.90
6581;DHT22;3324;50.796;7.228;2023-02-23T11:52:24;11.10;99.90
6581;DHT22;3324;50.796;7.228;2023-02-23T11:55:04;11.20;99.90
6581;DHT22;3324;50.796;7.228;2023-02-23T11:57:32;11.30;99.90
6581;DHT22;3324;50.796;7.228;2023-02-23T12:00:01;11.30;99.90
6581;DHT22;3324;50.796;7.228;2023-02-23T12:02:28;11.40;99.90
6581;DHT22;3324;50.796;7.228;2023-02-23T12:05:07;11.40;99.90
6581;DHT22;3324;50.796;7.228;2023-02-23T12:08:08;11.40;99.90
6581;DHT22;3324;50.796;7.228;2023-02-23T12:10:30;11.30;99.90
6581;DHT22;3324;50.796;7.228;2023-02-23T12:13:03;11.30;99.90
6581;DHT22;3324;50.796;7.228;2023-02-23T12:16:33;11.30;99.90
6581;DHT22;3324;50.796;7.228;2023-02-23T12:18:54;11.40;99.90
6581;DHT22;3324;50.796;7.228;2023-02-23T12:27:20;11.30;99.90
6581;DHT22;3324;50.796;7.228;2023-02-23T12:30:04;11.20;99.90
6581;DHT22;3324;50.796;7.228;2023-02-23T12:35:12;11.20;99.90
6581;DHT22;3324;50.796;7.228;2023-02-23T12:37:46;11.20;99.90
6581;DHT22;3324;50.796;7.228;2023-02-23T12:40:13;11.20;99.90
6581;DHT22;3324;50.796;7.228;2023-02-23T12:45:31;11.20;99.90
6581;DHT22;3324;50.796;7.228;2023-02-23T12:50:59;11.20;99.90
6581;DHT22;3324;50.796;7.228;2023-02-23T12:56:33;11.10;99.90
6581;DHT22;3324;50.796;7.228;2023-02-23T13:01:58;11.20;99.90
6581;DHT22;3324;50.796;7.228;2023-02-23T13:13:29;11.10;99.90
6581;DHT22;3324;50.796;7.228;2023-02-23T13:16:20;11.10;99.90
6581;DHT22;3324;50.796;7.228;2023-02-23T13:18:58;11.10;99.90
6581;DHT22;3324;50.796;7.228;2023-02-23T13:22:10;11.20;99.90
6581;DHT22;3324;50.796;7.228;2023-02-23T13:24:45;11.20;99.90
6581;DHT22;3324;50.796;7.228;2023-02-23T13:29:50;11.10;99.90
6581;DHT22;3324;50.796;7.228;2023-02-23T13:32:21;11.20;99.90
6581;DHT22;3324;50.796;7.228;2023-02-23T13:35:00;11.10;99.90
6581;DHT22;3324;50.796;7.228;2023-02-23T13:51:44;10.90;99.90
6581;DHT22;3324;50.796;7.228;2023-02-23T13:59:15;10.80;99.90
6581;DHT22;3324;50.796;7.228;2023-02-23T14:01:47;10.80;99.90
6581;DHT22;3324;50.796;7.228;2023-02-23T14:04:24;10.90;99.90
6581;DHT22;3324;50.796;7.228;2023-02-23T14:12:23;10.70;99.90
6581;DHT22;3324;50.796;7.228;2023-02-23T14:14:49;10.70;99.90
6581;DHT22;3324;50.796;7.228;2023-02-23T14:20:02;10.70;99.90
6581;DHT22;3324;50.796;7.228;2023-02-23T14:22:30;10.70;99.90
6581;DHT22;3324;50.796;7.228;2023-02-23T14:28:00;10.70;99.90
6581;DHT22;3324;50.796;7.228;2023-02-23T14:30:42;10.70;99.90
6581;DHT22;3324;50.796;7.228;2023-02-23T14:33:32;10.70;99.90
6581;DHT22;3324;50.796;7.228;2023-02-23T14:36:00;10.60;99.90
6581;DHT22;3324;50.796;7.228;2023-02-23T14:38:31;10.70;99.90
6581;DHT22;3324;50.796;7.228;2023-02-23T14:40:59;10.60;99.90
6581;DHT22;3324;50.796;7.228;2023-02-23T14:46:17;10.60;99.90
6581;DHT22;3324;50.796;7.228;2023-02-23T14:48:54;10.60;99.90
6581;DHT22;3324;50.796;7.228;2023-02-23T14:51:29;10.60;99.90
6581;DHT22;3324;50.796;7.228;2023-02-23T14:53:59;10.60;99.90
6581;DHT22;3324;50.796;7.228;2023-02-23T14:56:25;10.60;99.90
6581;DHT22;3324;50.796;7.228;2023-02-23T14:58:52;10.60;99.90
6581;DHT22;3324;50.796;7.228;2023-02-23T15:01:32;10.60;99.90
6581;DHT22;3324;50.796;7.228;2023-02-23T15:04:10;10.50;99.90
6581;DHT22;3324;50.796;7.228;2023-02-23T15:06:37;10.40;99.90
6581;DHT22;3324;50.796;7.228;2023-02-23T15:09:07;10.40;99.90
6581;DHT22;3324;50.796;7.228;2023-02-23T15:14:12;10.40;99.90
6581;DHT22;3324;50.796;7.228;2023-02-23T15:16:40;10.40;99.90
6581;DHT22;3324;50.796;7.228;2023-02-23T15:19:15;10.50;99.90
6581;DHT22;3324;50.796;7.228;2023-02-23T15:21:41;10.50;99.90
6581;DHT22;3324;50.796;7.228;2023-02-23T15:24:12;10.50;99.90
6581;DHT22;3324;50.796;7.228;2023-02-23T15:26:41;10.50;99.90
6581;DHT22;3324;50.796;7.228;2023-02-23T15:29:14;10.50;99.90
6581;DHT22;3324;50.796;7.228;2023-02-23T15:31:43;10.40;99.90
6581;DHT22;3324;50.796;7.228;2023-02-23T15:34:21;10.40;99.90
6581;DHT22;3324;50.796;7.228;2023-02-23T15:36:59;10.40;99.90
6581;DHT22;3324;50.796;7.228;2023-02-23T15:42:03;10.30;99.90
6581;DHT22;3324;50.796;7.228;2023-02-23T15:44:29;10.30;99.90
6581;DHT22;3324;50.796;7.228;2023-02-23T15:47:03;10.30;99.90
6581;DHT22;3324;50.796;7.228;2023-02-23T15:49:31;10.40;99.90
6581;DHT22;3324;50.796;7.228;2023-02-23T15:52:12;10.50;99.90
6581;DHT22;3324;50.796;7.228;2023-02-23T15:58:01;10.40;99.90
6581;DHT22;3324;50.796;7.228;2023-02-23T16:00:20;10.30;99.90
6581;DHT22;3324;50.796;7.228;2023-02-23T16:03:02;10.30;99.90
6581;DHT22;3324;50.796;7.228;2023-02-23T16:05:31;10.40;99.90
6581;DHT22;3324;50.796;7.228;2023-02-23T16:08:15;10.40;99.90
6581;DHT22;3324;50.796;7.228;2023-02-23T16:10:48;10.30;99.90
6581;DHT22;3324;50.796;7.228;2023-02-23T16:13:17;10.30;99.90
6581;DHT22;3324;50.796;7.228;2023-02-23T16:15:44;10.30;99.90
6581;DHT22;3324;50.796;7.228;2023-02-23T16:18:16;10.20;99.90
6581;DHT22;3324;50.796;7.228;2023-02-23T16:20:53;10.20;99.90
6581;DHT22;3324;50.796;7.228;2023-02-23T16:23:29;10.20;99.90
6581;DHT22;3324;50.796;7.228;2023-02-23T16:26:00;10.20;99.90
6581;DHT22;3324;50.796;7.228;2023-02-23T16:28:32;10.20;99.90
6581;DHT22;3324;50.796;7.228;2023-02-23T16:31:02;10.20;99.90
6581;DHT22;3324;50.796;7.228;2023-02-23T16:33:30;10.10;99.90
6581;DHT22;3324;50.796;7.228;2023-02-23T16:38:36;10.20;99.90
6581;DHT22;3324;50.796;7.228;2023-02-23T16:41:03;10.20;99.90
6581;DHT22;3324;50.796;7.228;2023-02-23T16:43:29;10.20;99.90
6581;DHT22;3324;50.796;7.228;2023-02-23T16:45:59;10.20;99.90
6581;DHT22;3324;50.796;7.228;2023-02-23T16:48:25;10.20;99.90
6581;DHT22;3324;50.796;7.228;2023-02-23T16:50:50;10.20;99.90
6581;DHT22;3324;50.796;7.228;2023-02-23T16:53:16;10.20;99.90
6581;DHT22;3324;50.796;7.228;2023-02-23T16:56:02;10.20;99.90
6581;DHT22;3324;50.796;7.228;2023-02-23T16:58:37;10.10;99.90
6581;DHT22;3324;50.796;7.228;2023-02-23T17:01:04;10.20;99.90
6581;DHT22;3324;50.796;7.228;2023-02-23T17:03:30;10.20;99.90
6581;DHT22;3324;50.796;7.228;2023-02-23T17:05:58;10.20;99.90
6581;DHT22;3324;50.796;7.228;2023-02-23T17:08:23;10.10;99.90
6581;DHT22;3324;50.796;7.228;2023-02-23T17:10:51;10.20;99.90
6581;DHT22;3324;50.796;7.228;2023-02-23T17:13:21;10.00;99.90
6581;DHT22;3324;50.796;7.228;2023-02-23T17:15:49;10.00;99.90
6581;DHT22;3324;50.796;7.228;2023-02-23T17:18:17;10.00;99.90
6581;DHT22;3324;50.796;7.228;2023-02-23T17:20:43;10.00;99.90
6581;DHT22;3324;50.796;7.228;2023-02-23T17:23:09;10.00;99.90
6581;DHT22;3324;50.796;7.228;2023-02-23T17:25:34;10.00;99.90
6581;DHT22;3324;50.796;7.228;2023-02-23T17:28:03;10.10;99.90
6581;DHT22;3324;50.796;7.228;2023-02-23T17:30:29;10.00;99.90
6581;DHT22;3324;50.796;7.228;2023-02-23T17:32:57;10.00;99.90
6581;DHT22;3324;50.796;7.228;2023-02-23T17:35:23;10.00;99.90
6581;DHT22;3324;50.796;7.228;2023-02-23T17:37:51;9.90;99.90
6581;DHT22;3324;50.796;7.228;2023-02-23T17:40:20;9.90;99.90
6581;DHT22;3324;50.796;7.228;2023-02-23T17:42:51;10.00;99.90
6581;DHT22;3324;50.796;7.228;2023-02-23T17:45:16;9.90;99.90
6581;DHT22;3324;50.796;7.228;2023-02-23T17:47:42;9.90;99.90
6581;DHT22;3324;50.796;7.228;2023-02-23T17:50:08;9.90;99.90
6581;DHT22;3324;50.796;7.228;2023-02-23T17:52:43;10.00;99.90
6581;DHT22;3324;50.796;7.228;2023-02-23T18:01:07;9.90;99.90
6581;DHT22;3324;50.796;7.228;2023-02-23T18:03:34;9.90;99.90
6581;DHT22;3324;50.796;7.228;2023-02-23T18:06:06;9.80;99.90
6581;DHT22;3324;50.796;7.228;2023-02-23T18:08:33;9.90;99.90
6581;DHT22;3324;50.796;7.228;2023-02-23T18:10:58;9.90;99.90
6581;DHT22;3324;50.796;7.228;2023-02-23T18:13:26;9.90;99.90
6581;DHT22;3324;50.796;7.228;2023-02-23T18:15:54;9.80;99.90
6581;DHT22;3324;50.796;7.228;2023-02-23T18:18:21;9.80;99.90
6581;DHT22;3324;50.796;7.228;2023-02-23T18:20:54;9.80;99.90
6581;DHT22;3324;50.796;7.228;2023-02-23T18:23:20;9.80;99.90
6581;DHT22;3324;50.796;7.228;2023-02-23T18:25:46;9.80;99.90
6581;DHT22;3324;50.796;7.228;2023-02-23T18:28:13;9.70;99.90
6581;DHT22;3324;50.796;7.228;2023-02-23T18:30:39;9.70;99.90
6581;DHT22;3324;50.796;7.228;2023-02-23T18:33:06;9.70;99.90
6581;DHT22;3324;50.796;7.228;2023-02-23T18:35:34;9.80;99.90
6581;DHT22;3324;50.796;7.228;2023-02-23T18:38:04;9.80;99.90
6581;DHT22;3324;50.796;7.228;2023-02-23T18:40:31;9.80;99.90
6581;DHT22;3324;50.796;7.228;2023-02-23T18:42:57;9.70;99.90
6581;DHT22;3324;50.796;7.228;2023-02-23T18:45:24;9.70;99.90
6581;DHT22;3324;50.796;7.228;2023-02-23T18:47:49;9.60;99.90
6581;DHT22;3324;50.796;7.228;2023-02-23T18:50:16;9.70;99.90
6581;DHT22;3324;50.796;7.228;2023-02-23T18:52:52;9.70;99.90